Time;durP1;ratioP1;P1;durP2;ratioP2;P2;SDS_P1;SDS_P2;PMS_P1;PMS_P2;Temp;Humidity;BMP_temperature;BMP_pressure;BME280_temperature;BME280_humidity;BME280_pressure;Samples;Min_cycle;Max_cycle;Signal;HPM_P1;HPM_P2
2022/01/05 00:01:46;;;;;;;8.95;2.75;;;;;;;;;;5147644;27;20499;-46
2022/01/05 00:04:12;;;;;;;8.45;3.03;;;;;;;;;;5153389;27;20281;-45
2022/01/05 00:06:38;;;;;;;10.25;3.10;;;;;;;;;;5152645;27;20220;-45
2022/01/05 00:09:08;;;;;;;18.48;4.03;;;;;;;;;;5135244;27;20429;-45
2022/01/05 00:11:37;;;;;;;6.88;2.40;;;;;;;;;;5130391;27;20092;-45
2022/01/05 00:14:06;;;;;;;5.20;2.60;;;;;;;;;;5131991;27;20088;-45
2022/01/05 00:16:35;;;;;;;8.07;2.30;;;;;;;;;;5132409;27;20035;-45
2022/01/05 00:19:04;;;;;;;6.00;2.00;;;;;;;;;;5132190;27;20035;-45
2022/01/05 00:21:40;;;;;;;9.75;2.28;;;;;;;;;;5131946;27;20039;-45
2022/01/05 00:24:10;;;;;;;7.55;2.05;;;;;;;;;;5131784;27;20043;-45
2022/01/05 00:26:36;;;;;;;10.15;2.70;;;;;;;;;;5132282;27;20415;-46
2022/01/05 00:29:02;;;;;;;12.48;3.80;;;;;;;;;;5131868;27;20039;-47
2022/01/05 00:31:31;;;;;;;8.70;4.85;;;;;;;;;;5142050;27;20425;-47
2022/01/05 00:33:57;;;;;;;9.25;2.97;;;;;;;;;;5152478;27;20069;-45
2022/01/05 00:36:23;;;;;;;5.88;2.17;;;;;;;;;;5152586;27;20600;-47
2022/01/05 00:38:49;;;;;;;7.47;2.50;;;;;;;;;;5152002;27;20042;-47
2022/01/05 00:41:15;;;;;;;8.32;2.67;;;;;;;;;;5152277;27;20042;-46
2022/01/05 00:43:45;;;;;;;9.18;2.90;;;;;;;;;;5122932;27;20039;-47
2022/01/05 00:46:11;;;;;;;8.18;1.83;;;;;;;;;;5131882;27;20047;-48
2022/01/05 00:48:37;;;;;;;8.82;2.95;;;;;;;;;;5131715;27;20492;-45
2022/01/05 00:51:04;;;;;;;9.32;1.88;;;;;;;;;;5144269;27;20078;-45
2022/01/05 00:53:31;;;;;;;4.90;1.65;;;;;;;;;;5152242;27;20095;-45
2022/01/05 00:55:59;;;;;;;7.45;1.95;;;;;;;;;;5152367;27;20046;-45
2022/01/05 00:58:32;;;;;;;5.35;1.85;;;;;;;;;;5151889;27;20444;-46
2022/01/05 01:00:58;;;;;;;10.40;2.13;;;;;;;;;;5151789;27;20244;-45
2022/01/05 01:03:27;;;;;;;9.25;2.47;;;;;;;;;;5133661;27;20207;-46
2022/01/05 01:05:53;;;;;;;9.23;1.92;;;;;;;;;;5151913;27;20042;-46
2022/01/05 01:08:19;;;;;;;8.80;1.90;;;;;;;;;;5152013;27;20034;-47
2022/01/05 01:10:49;;;;;;;7.90;1.58;;;;;;;;;;5151355;27;20513;-47
2022/01/05 01:13:18;;;;;;;7.28;1.45;;;;;;;;;;5151541;27;20038;-46
2022/01/05 01:15:45;;;;;;;7.75;1.83;;;;;;;;;;5152263;27;20038;-46
2022/01/05 01:18:14;;;;;;;4.95;1.83;;;;;;;;;;5151940;27;20042;-46
2022/01/05 01:20:41;;;;;;;8.95;2.10;;;;;;;;;;5151851;27;20045;-45
2022/01/05 01:23:10;;;;;;;9.00;1.70;;;;;;;;;;5151735;27;20039;-46
2022/01/05 01:25:39;;;;;;;8.02;3.72;;;;;;;;;;5151082;27;20049;-46
2022/01/05 01:28:06;;;;;;;9.13;2.80;;;;;;;;;;5150903;27;20039;-47
2022/01/05 01:30:35;;;;;;;7.80;2.45;;;;;;;;;;5151273;27;20035;-46
2022/01/05 01:33:01;;;;;;;8.07;1.88;;;;;;;;;;5151258;27;20039;-47
2022/01/05 01:35:30;;;;;;;6.60;1.77;;;;;;;;;;5151391;27;20038;-46
2022/01/05 01:37:59;;;;;;;7.45;2.45;;;;;;;;;;5151627;27;20118;-49
2022/01/05 01:40:25;;;;;;;5.72;2.13;;;;;;;;;;5150694;27;20422;-46
2022/01/05 01:42:54;;;;;;;7.55;2.10;;;;;;;;;;5130784;27;20041;-50
2022/01/05 01:45:21;;;;;;;5.93;2.50;;;;;;;;;;5146228;27;20035;-49
2022/01/05 01:47:47;;;;;;;10.98;1.92;;;;;;;;;;5126021;28;20043;-46
2022/01/05 01:50:13;;;;;;;10.70;2.08;;;;;;;;;;5126407;27;20403;-47
2022/01/05 01:52:40;;;;;;;10.60;2.20;;;;;;;;;;5136245;27;20042;-50
2022/01/05 01:55:09;;;;;;;10.55;2.88;;;;;;;;;;5138395;27;20058;-52
2022/01/05 01:57:36;;;;;;;5.70;1.95;;;;;;;;;;5142246;27;20039;-47
2022/01/05 02:00:04;;;;;;;9.18;2.88;;;;;;;;;;5141434;27;20087;-47
2022/01/05 02:02:33;;;;;;;11.20;2.33;;;;;;;;;;5125600;27;20034;-51
2022/01/05 02:05:03;;;;;;;7.13;2.08;;;;;;;;;;5134363;27;20049;-47
2022/01/05 02:07:29;;;;;;;10.57;2.72;;;;;;;;;;5139813;27;20088;-47
2022/01/05 02:09:55;;;;;;;7.45;2.28;;;;;;;;;;5149071;27;20433;-48
2022/01/05 02:12:26;;;;;;;7.93;2.40;;;;;;;;;;5145874;27;20042;-47
2022/01/05 02:14:55;;;;;;;8.05;2.05;;;;;;;;;;5150568;27;20035;-47
2022/01/05 02:17:29;;;;;;;7.18;2.08;;;;;;;;;;5140928;27;20046;-47
2022/01/05 02:19:55;;;;;;;9.15;2.78;;;;;;;;;;5142744;27;20039;-47
2022/01/05 02:22:24;;;;;;;7.00;2.33;;;;;;;;;;5140856;27;20042;-49
2022/01/05 02:24:50;;;;;;;11.95;2.40;;;;;;;;;;5135971;27;20115;-48
2022/01/05 02:27:20;;;;;;;11.75;2.58;;;;;;;;;;5154781;27;20038;-49
2022/01/05 02:29:49;;;;;;;9.20;2.78;;;;;;;;;;5154839;27;20376;-46
2022/01/05 02:32:15;;;;;;;9.10;2.55;;;;;;;;;;5148466;27;20114;-46
2022/01/05 02:34:45;;;;;;;6.55;2.30;;;;;;;;;;5154407;27;20546;-46
2022/01/05 02:37:14;;;;;;;8.35;2.15;;;;;;;;;;5155263;27;20074;-46
2022/01/05 02:39:43;;;;;;;15.35;3.08;;;;;;;;;;5154955;27;20279;-46
2022/01/05 02:42:09;;;;;;;8.57;1.73;;;;;;;;;;5154623;27;20475;-45
2022/01/05 02:44:35;;;;;;;8.55;1.85;;;;;;;;;;5154921;27;20064;-46
2022/01/05 02:47:01;;;;;;;10.30;2.25;;;;;;;;;;5154959;27;20399;-47
2022/01/05 02:49:31;;;;;;;13.93;2.47;;;;;;;;;;5139484;27;20078;-47
2022/01/05 02:52:02;;;;;;;11.73;2.47;;;;;;;;;;5133898;27;20122;-47
2022/01/05 02:54:28;;;;;;;11.95;2.15;;;;;;;;;;5133853;27;20100;-50
2022/01/05 02:57:00;;;;;;;8.40;2.28;;;;;;;;;;5133805;27;20527;-46
2022/01/05 02:59:33;;;;;;;6.50;2.08;;;;;;;;;;5137441;27;20499;-47
2022/01/05 03:02:01;;;;;;;14.10;2.72;;;;;;;;;;5135408;27;20035;-48
2022/01/05 03:04:27;;;;;;;9.45;2.70;;;;;;;;;;5154400;27;20042;-45
2022/01/05 03:06:54;;;;;;;7.30;2.13;;;;;;;;;;5152882;27;20081;-46
2022/01/05 03:09:20;;;;;;;7.20;2.05;;;;;;;;;;5154322;27;20034;-47
2022/01/05 03:11:49;;;;;;;9.60;2.25;;;;;;;;;;5153995;27;20039;-46
2022/01/05 03:14:15;;;;;;;13.60;2.20;;;;;;;;;;5154408;27;20436;-47
2022/01/05 03:16:41;;;;;;;13.68;2.35;;;;;;;;;;5154314;27;20035;-46
2022/01/05 03:19:08;;;;;;;10.77;2.15;;;;;;;;;;5153850;27;20047;-46
2022/01/05 03:21:36;;;;;;;9.10;2.03;;;;;;;;;;5154227;27;20087;-47
2022/01/05 03:24:05;;;;;;;8.60;2.00;;;;;;;;;;5153933;27;20487;-46
2022/01/05 03:26:31;;;;;;;7.63;2.33;;;;;;;;;;5115039;27;20104;-48
2022/01/05 03:29:03;;;;;;;7.03;2.13;;;;;;;;;;5133201;27;20035;-46
2022/01/05 03:31:32;;;;;;;16.38;2.78;;;;;;;;;;5136096;27;20045;-46
2022/01/05 03:34:01;;;;;;;8.45;2.22;;;;;;;;;;5141207;27;20027;-47
2022/01/05 03:36:27;;;;;;;10.02;2.53;;;;;;;;;;5147824;22;20031;-47
2022/01/05 03:38:53;;;;;;;9.63;2.28;;;;;;;;;;5088304;23;20459;-47
2022/01/05 03:41:22;;;;;;;10.52;2.22;;;;;;;;;;5109673;28;20051;-47
2022/01/05 03:43:48;;;;;;;13.48;2.13;;;;;;;;;;5091437;28;20036;-48
2022/01/05 03:46:15;;;;;;;6.78;1.88;;;;;;;;;;5073384;28;20130;-48
2022/01/05 03:48:41;;;;;;;10.63;2.47;;;;;;;;;;5091199;28;20043;-47
2022/01/05 03:51:07;;;;;;;7.40;2.00;;;;;;;;;;5090336;28;20397;-48
2022/01/05 03:53:33;;;;;;;9.57;3.03;;;;;;;;;;5091679;28;20081;-46
2022/01/05 03:56:02;;;;;;;10.23;2.35;;;;;;;;;;5072816;28;20123;-47
2022/01/05 03:58:28;;;;;;;9.10;2.17;;;;;;;;;;5091291;28;20059;-47
2022/01/05 04:00:56;;;;;;;8.75;2.53;;;;;;;;;;5090959;28;20040;-47
2022/01/05 04:03:25;;;;;;;7.63;2.10;;;;;;;;;;5091258;28;20036;-47
2022/01/05 04:05:51;;;;;;;8.80;2.20;;;;;;;;;;5090461;28;20373;-47
2022/01/05 04:08:20;;;;;;;10.63;2.50;;;;;;;;;;5090606;28;20037;-46
2022/01/05 04:10:49;;;;;;;10.98;2.22;;;;;;;;;;5072951;28;20040;-47
2022/01/05 04:13:19;;;;;;;7.80;2.20;;;;;;;;;;5090530;28;20120;-47
2022/01/05 04:15:46;;;;;;;20.65;7.45;;;;;;;;;;5090870;28;20040;-47
2022/01/05 04:18:21;;;;;;;45.72;14.40;;;;;;;;;;5090873;28;20468;-47
2022/01/05 04:20:47;;;;;;;73.43;24.65;;;;;;;;;;5092200;28;20040;-48
2022/01/05 04:23:16;;;;;;;52.80;18.73;;;;;;;;;;5091777;28;20396;-47
2022/01/05 04:25:42;;;;;;;22.58;6.82;;;;;;;;;;5091506;28;20040;-47
2022/01/05 04:28:08;;;;;;;49.42;20.67;;;;;;;;;;5091282;28;20434;-48
2022/01/05 04:30:34;;;;;;;22.45;8.77;;;;;;;;;;5090835;28;20459;-48
2022/01/05 04:33:01;;;;;;;19.42;8.32;;;;;;;;;;5090578;28;20035;-48
2022/01/05 04:35:30;;;;;;;18.45;7.07;;;;;;;;;;5090246;28;20040;-49
2022/01/05 04:37:56;;;;;;;18.98;6.63;;;;;;;;;;5090236;28;20142;-49
2022/01/05 04:40:22;;;;;;;14.45;5.25;;;;;;;;;;5090308;28;20381;-49
2022/01/05 04:42:48;;;;;;;12.25;5.93;;;;;;;;;;5090216;28;20044;-48
2022/01/05 04:45:18;;;;;;;13.48;6.25;;;;;;;;;;5090421;28;20040;-49
2022/01/05 04:47:52;;;;;;;14.75;5.78;;;;;;;;;;5089920;28;20043;-48
2022/01/05 04:50:24;;;;;;;12.95;5.53;;;;;;;;;;5090386;28;20039;-49
2022/01/05 04:52:53;;;;;;;9.30;3.20;;;;;;;;;;5090123;28;20434;-48
2022/01/05 04:55:22;;;;;;;14.35;3.33;;;;;;;;;;5073078;28;20374;-48
2022/01/05 04:57:48;;;;;;;13.13;3.13;;;;;;;;;;5090458;28;20036;-48
2022/01/05 05:00:15;;;;;;;15.18;3.92;;;;;;;;;;5090620;28;20040;-48
2022/01/05 05:02:41;;;;;;;12.00;3.17;;;;;;;;;;5090150;28;20042;-49
2022/01/05 05:05:10;;;;;;;13.98;3.05;;;;;;;;;;5090386;28;20044;-48
2022/01/05 05:07:39;;;;;;;6.35;2.67;;;;;;;;;;5089179;28;20032;-48
2022/01/05 05:10:06;;;;;;;9.85;2.22;;;;;;;;;;5089748;28;20056;-49
2022/01/05 05:12:35;;;;;;;15.00;3.30;;;;;;;;;;5089732;28;20065;-48
2022/01/05 05:15:04;;;;;;;13.07;3.45;;;;;;;;;;5089782;28;20123;-48
2022/01/05 05:17:33;;;;;;;17.08;3.67;;;;;;;;;;5089916;28;20400;-47
2022/01/05 05:19:59;;;;;;;8.13;3.15;;;;;;;;;;5089983;28;20506;-49
2022/01/05 05:22:28;;;;;;;13.40;3.33;;;;;;;;;;5089530;28;20472;-48
2022/01/05 05:24:54;;;;;;;14.80;3.20;;;;;;;;;;5090210;28;20089;-50
2022/01/05 05:27:23;;;;;;;9.25;2.97;;;;;;;;;;5066479;28;20098;-49
2022/01/05 05:29:55;;;;;;;11.05;2.95;;;;;;;;;;5084882;28;20115;-49
2022/01/05 05:32:27;;;;;;;17.55;3.45;;;;;;;;;;5084413;28;20072;-48
2022/01/05 05:34:59;;;;;;;9.20;2.90;;;;;;;;;;5086401;28;20500;-48
2022/01/05 05:37:25;;;;;;;14.60;3.50;;;;;;;;;;5089417;28;20036;-48
2022/01/05 05:39:51;;;;;;;14.55;3.60;;;;;;;;;;5072309;28;20040;-49
2022/01/05 05:42:23;;;;;;;16.58;2.72;;;;;;;;;;5072339;28;20043;-48
2022/01/05 05:44:49;;;;;;;10.05;2.47;;;;;;;;;;5090463;28;20047;-48
2022/01/05 05:47:15;;;;;;;8.40;2.90;;;;;;;;;;5090039;28;20094;-48
2022/01/05 05:49:45;;;;;;;9.98;2.55;;;;;;;;;;5089942;28;20043;-48
2022/01/05 05:52:15;;;;;;;12.38;3.58;;;;;;;;;;5090459;28;20093;-47
2022/01/05 05:54:52;;;;;;;16.13;3.80;;;;;;;;;;5090373;28;20063;-51
2022/01/05 05:57:24;;;;;;;14.55;4.35;;;;;;;;;;5090096;28;20461;-45
2022/01/05 05:59:56;;;;;;;14.02;3.45;;;;;;;;;;5071627;28;20044;-48
2022/01/05 06:02:22;;;;;;;11.30;4.07;;;;;;;;;;5089632;28;20036;-48
2022/01/05 06:05:23;;;;;;;15.90;3.35;;;;;;;;;;5089909;28;20443;-46
2022/01/05 06:07:52;;;;;;;12.82;4.15;;;;;;;;;;5083942;28;20043;-46
2022/01/05 06:10:19;;;;;;;9.15;3.55;;;;;;;;;;5089654;28;20082;-50
2022/01/05 06:12:45;;;;;;;10.43;4.25;;;;;;;;;;5089349;28;20077;-48
2022/01/05 06:15:19;;;;;;;16.60;3.72;;;;;;;;;;5090410;28;20419;-46
2022/01/05 06:17:49;;;;;;;20.52;4.93;;;;;;;;;;5089862;28;20044;-47
2022/01/05 06:20:15;;;;;;;14.18;3.58;;;;;;;;;;5083763;28;20040;-48
2022/01/05 06:22:48;;;;;;;14.52;4.13;;;;;;;;;;5069446;28;20405;-47
2022/01/05 06:25:14;;;;;;;13.27;4.60;;;;;;;;;;5070051;28;20041;-46
2022/01/05 06:27:40;;;;;;;12.55;3.70;;;;;;;;;;5069545;28;20378;-47
2022/01/05 06:30:10;;;;;;;9.45;2.47;;;;;;;;;;5051747;28;20052;-46
2022/01/05 06:32:46;;;;;;;11.10;2.55;;;;;;;;;;5069611;28;20420;-47
2022/01/05 06:35:15;;;;;;;11.85;3.10;;;;;;;;;;5069312;28;20405;-46
2022/01/05 06:37:44;;;;;;;10.32;2.22;;;;;;;;;;5051878;28;20048;-46
2022/01/05 06:40:13;;;;;;;11.70;2.90;;;;;;;;;;5068464;28;20040;-45
2022/01/05 06:42:42;;;;;;;13.77;3.00;;;;;;;;;;5072625;28;20044;-46
2022/01/05 06:45:08;;;;;;;11.75;2.47;;;;;;;;;;5073474;28;20040;-46
2022/01/05 06:47:34;;;;;;;8.10;2.25;;;;;;;;;;5073802;28;20036;-46
2022/01/05 06:50:01;;;;;;;15.63;3.75;;;;;;;;;;5073916;28;20417;-46
2022/01/05 06:52:27;;;;;;;7.82;2.15;;;;;;;;;;5073485;28;20047;-46
2022/01/05 06:54:56;;;;;;;14.05;2.72;;;;;;;;;;5073459;28;20424;-46
2022/01/05 06:57:22;;;;;;;14.32;3.20;;;;;;;;;;5073405;28;20543;-46
2022/01/05 06:59:48;;;;;;;10.18;2.58;;;;;;;;;;5073228;28;20396;-47
2022/01/05 07:02:14;;;;;;;10.18;2.90;;;;;;;;;;5072982;28;20366;-46
2022/01/05 07:04:40;;;;;;;12.88;2.45;;;;;;;;;;5073279;28;20044;-46
2022/01/05 07:07:09;;;;;;;12.07;2.55;;;;;;;;;;5073323;28;20445;-47
2022/01/05 07:09:35;;;;;;;10.52;2.97;;;;;;;;;;5073042;28;20041;-47
2022/01/05 07:12:04;;;;;;;15.15;2.58;;;;;;;;;;5072849;28;20037;-47
2022/01/05 07:14:33;;;;;;;7.88;1.80;;;;;;;;;;5073087;28;20044;-48
2022/01/05 07:17:03;;;;;;;11.85;2.28;;;;;;;;;;5073048;28;20040;-48
2022/01/05 07:19:29;;;;;;;6.97;1.95;;;;;;;;;;5073056;28;20040;-47
2022/01/05 07:21:58;;;;;;;8.55;1.75;;;;;;;;;;5072700;28;20545;-47
2022/01/05 07:24:26;;;;;;;7.85;1.80;;;;;;;;;;5072814;28;20182;-47
2022/01/05 07:26:53;;;;;;;3.60;1.55;;;;;;;;;;5054376;28;20127;-47
2022/01/05 07:29:19;;;;;;;7.68;1.92;;;;;;;;;;5072661;28;20052;-47
2022/01/05 07:31:45;;;;;;;10.45;1.90;;;;;;;;;;5072525;28;20040;-47
2022/01/05 07:34:18;;;;;;;7.38;1.60;;;;;;;;;;5072321;28;20040;-46
2022/01/05 07:36:44;;;;;;;8.55;1.90;;;;;;;;;;5072233;28;20055;-48
2022/01/05 07:39:10;;;;;;;7.68;1.60;;;;;;;;;;5072176;28;20131;-47
2022/01/05 07:41:37;;;;;;;5.25;1.50;;;;;;;;;;5071494;28;20048;-47
2022/01/05 07:44:04;;;;;;;7.28;2.30;;;;;;;;;;5053809;28;20131;-50
2022/01/05 07:46:39;;;;;;;7.68;1.65;;;;;;;;;;5072033;28;20068;-48
2022/01/05 07:49:11;;;;;;;12.65;2.92;;;;;;;;;;5071744;28;20466;-48
2022/01/05 07:51:37;;;;;;;9.77;2.95;;;;;;;;;;5070128;28;20040;-48
2022/01/05 07:54:07;;;;;;;10.52;2.30;;;;;;;;;;5092438;28;20032;-48
2022/01/05 07:56:33;;;;;;;7.90;2.78;;;;;;;;;;5112624;28;20112;-51
2022/01/05 07:59:05;;;;;;;10.00;2.83;;;;;;;;;;5112209;28;20408;-48
2022/01/05 08:01:31;;;;;;;10.23;2.70;;;;;;;;;;5112173;28;20485;-51
2022/01/05 08:03:57;;;;;;;9.98;3.10;;;;;;;;;;5112534;28;20039;-48
2022/01/05 08:06:23;;;;;;;11.82;3.47;;;;;;;;;;5112855;28;20043;-47
2022/01/05 08:08:50;;;;;;;10.40;3.25;;;;;;;;;;5112420;28;20447;-47
2022/01/05 08:11:19;;;;;;;14.98;4.35;;;;;;;;;;5112370;28;20055;-47
2022/01/05 08:13:47;;;;;;;13.90;4.22;;;;;;;;;;5112148;28;20040;-49
2022/01/05 08:16:13;;;;;;;13.70;4.05;;;;;;;;;;5112689;28;20054;-47
2022/01/05 08:18:39;;;;;;;20.55;5.57;;;;;;;;;;5112174;28;20099;-47
2022/01/05 08:21:05;;;;;;;16.40;6.55;;;;;;;;;;5112082;28;20380;-47
2022/01/05 08:23:32;;;;;;;17.85;5.60;;;;;;;;;;5093876;28;20050;-50
2022/01/05 08:25:58;;;;;;;31.60;11.77;;;;;;;;;;5112243;28;20605;-47
2022/01/05 08:28:24;;;;;;;21.38;6.50;;;;;;;;;;5112387;28;20517;-46
2022/01/05 08:30:53;;;;;;;19.38;7.15;;;;;;;;;;5112179;28;20480;-48
2022/01/05 08:33:19;;;;;;;14.25;4.15;;;;;;;;;;5093462;28;20040;-47
2022/01/05 08:35:45;;;;;;;14.57;3.10;;;;;;;;;;5093705;28;20051;-46
2022/01/05 08:38:15;;;;;;;6.25;1.95;;;;;;;;;;5111866;28;20043;-47
2022/01/05 08:40:44;;;;;;;9.98;2.50;;;;;;;;;;5111971;28;20046;-46
2022/01/05 08:43:14;;;;;;;5.50;2.05;;;;;;;;;;5111902;28;20393;-47
2022/01/05 08:45:43;;;;;;;7.38;2.05;;;;;;;;;;5111719;28;20373;-46
2022/01/05 08:48:13;;;;;;;9.57;1.92;;;;;;;;;;5111437;28;20381;-47
2022/01/05 08:50:39;;;;;;;9.60;2.50;;;;;;;;;;5112048;28;20420;-46
2022/01/05 08:53:09;;;;;;;9.13;2.38;;;;;;;;;;5093471;28;20594;-46
2022/01/05 08:55:40;;;;;;;9.18;1.95;;;;;;;;;;5110815;28;20081;-50
2022/01/05 08:58:10;;;;;;;11.10;2.20;;;;;;;;;;5111824;28;20094;-46
2022/01/05 09:00:39;;;;;;;11.95;2.67;;;;;;;;;;5111828;28;20046;-47
2022/01/05 09:03:06;;;;;;;11.60;2.10;;;;;;;;;;5111337;28;20040;-47
2022/01/05 09:05:32;;;;;;;9.32;2.25;;;;;;;;;;5110260;28;20043;-48
2022/01/05 09:07:58;;;;;;;13.43;2.33;;;;;;;;;;5110881;28;20050;-46
2022/01/05 09:10:25;;;;;;;8.80;1.88;;;;;;;;;;5110955;28;20092;-47
2022/01/05 09:12:53;;;;;;;5.25;1.80;;;;;;;;;;5110826;28;20071;-47
2022/01/05 09:15:19;;;;;;;6.28;2.10;;;;;;;;;;5111159;28;20391;-47
2022/01/05 09:17:45;;;;;;;12.75;2.00;;;;;;;;;;5111173;28;20042;-49
2022/01/05 09:20:12;;;;;;;7.95;1.80;;;;;;;;;;5110665;28;20050;-47
2022/01/05 09:22:38;;;;;;;10.15;1.95;;;;;;;;;;5110823;28;20463;-47
2022/01/05 09:25:09;;;;;;;7.85;1.55;;;;;;;;;;5110954;28;20105;-47
2022/01/05 09:27:36;;;;;;;7.95;1.88;;;;;;;;;;5110510;28;20043;-50
2022/01/05 09:30:03;;;;;;;7.95;1.77;;;;;;;;;;5107242;28;20040;-47
2022/01/05 09:32:29;;;;;;;11.30;2.70;;;;;;;;;;5106526;28;20036;-47
2022/01/05 09:34:58;;;;;;;7.22;1.90;;;;;;;;;;5110775;28;20088;-46
2022/01/05 09:37:32;;;;;;;7.95;1.75;;;;;;;;;;5108944;28;20071;-49
2022/01/05 09:42:46;;;;;;;7.28;1.60;;;;;;;;;;5111334;28;20082;-47
2022/01/05 09:45:22;;;;;;;10.10;2.35;;;;;;;;;;5110954;28;20121;-49
2022/01/05 09:48:08;;;;;;;13.05;2.13;;;;;;;;;;5110906;28;20098;-48
2022/01/05 09:50:35;;;;;;;15.55;3.22;;;;;;;;;;5110631;28;20377;-46
2022/01/05 09:53:05;;;;;;;16.25;3.10;;;;;;;;;;5109801;28;20032;-46
2022/01/05 09:55:31;;;;;;;13.23;2.30;;;;;;;;;;5109876;28;20046;-47
2022/01/05 09:57:58;;;;;;;12.65;2.80;;;;;;;;;;5110239;28;20039;-47
2022/01/05 10:00:27;;;;;;;11.88;3.05;;;;;;;;;;5111003;28;20476;-46
2022/01/05 10:02:53;;;;;;;18.27;2.88;;;;;;;;;;5110515;28;20090;-47
2022/01/05 10:05:23;;;;;;;14.73;3.20;;;;;;;;;;5110015;28;20239;-47
2022/01/05 10:07:52;;;;;;;15.18;2.90;;;;;;;;;;5110116;28;20038;-47
2022/01/05 10:10:18;;;;;;;11.38;2.92;;;;;;;;;;5110648;28;20035;-47
2022/01/05 10:12:44;;;;;;;16.83;2.65;;;;;;;;;;5110079;28;20127;-48
2022/01/05 10:15:13;;;;;;;11.38;2.65;;;;;;;;;;5110930;28;20579;-47
2022/01/05 10:17:40;;;;;;;14.25;2.78;;;;;;;;;;5112770;28;20047;-48
2022/01/05 10:20:11;;;;;;;15.77;2.65;;;;;;;;;;5114879;28;20040;-47
2022/01/05 10:22:37;;;;;;;16.48;3.20;;;;;;;;;;5114118;28;20091;-47
2022/01/05 10:25:05;;;;;;;14.40;3.47;;;;;;;;;;5113724;28;20123;-47
2022/01/05 10:27:37;;;;;;;14.73;2.88;;;;;;;;;;5112973;28;20385;-48
2022/01/05 10:30:14;;;;;;;10.48;3.70;;;;;;;;;;5114405;28;20392;-48
2022/01/05 10:32:46;;;;;;;20.88;3.72;;;;;;;;;;5114207;28;20044;-49
2022/01/05 10:35:12;;;;;;;13.93;3.13;;;;;;;;;;5096395;28;20105;-48
2022/01/05 10:37:44;;;;;;;19.50;3.67;;;;;;;;;;5112750;28;20094;-48
2022/01/05 10:40:11;;;;;;;20.50;3.75;;;;;;;;;;5113950;28;20036;-47
2022/01/05 10:42:37;;;;;;;15.93;3.33;;;;;;;;;;5113755;28;20039;-48
2022/01/05 10:45:08;;;;;;;20.20;3.67;;;;;;;;;;5114281;28;20039;-49
2022/01/05 10:47:35;;;;;;;16.88;3.15;;;;;;;;;;5114173;28;20047;-47
2022/01/05 10:50:01;;;;;;;15.95;3.80;;;;;;;;;;5113778;28;20165;-48
2022/01/05 10:52:27;;;;;;;16.90;3.15;;;;;;;;;;5113769;28;20031;-48
2022/01/05 10:55:10;;;;;;;15.38;2.92;;;;;;;;;;5113588;28;20031;-48
2022/01/05 10:57:36;;;;;;;12.20;2.67;;;;;;;;;;5113882;28;20039;-48
2022/01/05 11:00:13;;;;;;;11.77;2.58;;;;;;;;;;5113732;28;20555;-47
2022/01/05 11:02:43;;;;;;;14.82;3.05;;;;;;;;;;5113374;28;20059;-48
2022/01/05 11:05:09;;;;;;;14.18;2.80;;;;;;;;;;5114228;28;20071;-48
2022/01/05 11:07:39;;;;;;;16.05;3.17;;;;;;;;;;5095599;28;20548;-48
2022/01/05 11:10:13;;;;;;;14.57;3.58;;;;;;;;;;5113363;28;20051;-49
2022/01/05 11:12:49;;;;;;;15.10;3.30;;;;;;;;;;5113116;28;20039;-48
2022/01/05 11:15:24;;;;;;;18.80;2.70;;;;;;;;;;5113793;28;20450;-48
2022/01/05 11:18:09;;;;;;;24.15;3.33;;;;;;;;;;5113318;28;20100;-49
2022/01/05 11:20:42;;;;;;;18.92;3.70;;;;;;;;;;5113506;28;20160;-47
2022/01/05 11:23:18;;;;;;;14.73;3.50;;;;;;;;;;5112729;28;20050;-48
2022/01/05 11:25:45;;;;;;;12.93;2.72;;;;;;;;;;5113643;28;20389;-49
2022/01/05 11:28:31;;;;;;;12.52;2.83;;;;;;;;;;5111997;28;20373;-47
2022/01/05 11:31:00;;;;;;;12.30;2.95;;;;;;;;;;5112682;28;20063;-48
2022/01/05 11:33:26;;;;;;;11.38;2.60;;;;;;;;;;5112825;28;20032;-47
2022/01/05 11:35:53;;;;;;;12.88;2.88;;;;;;;;;;5112761;28;20036;-47
2022/01/05 11:38:19;;;;;;;19.60;3.55;;;;;;;;;;5112044;28;20524;-45
2022/01/05 11:40:49;;;;;;;9.38;2.80;;;;;;;;;;5112997;28;20067;-46
2022/01/05 11:43:27;;;;;;;15.73;3.28;;;;;;;;;;5111312;28;20051;-48
2022/01/05 11:45:56;;;;;;;16.52;3.35;;;;;;;;;;5112567;28;20524;-48
2022/01/05 11:48:40;;;;;;;9.75;2.65;;;;;;;;;;5112513;28;20044;-46
2022/01/05 11:51:06;;;;;;;8.45;2.35;;;;;;;;;;5112484;28;20078;-46
2022/01/05 11:53:35;;;;;;;16.08;2.60;;;;;;;;;;5094422;28;20055;-45
2022/01/05 11:56:04;;;;;;;11.20;2.55;;;;;;;;;;5112656;28;20035;-46
2022/01/05 11:58:32;;;;;;;11.15;2.58;;;;;;;;;;5112384;28;20046;-45
2022/01/05 12:01:33;;;;;;;10.25;2.63;;;;;;;;;;5111958;28;20117;-47
2022/01/05 12:04:00;;;;;;;8.75;2.40;;;;;;;;;;5112835;28;20522;-45
2022/01/05 12:06:39;;;;;;;12.02;2.35;;;;;;;;;;5112787;28;20404;-46
2022/01/05 12:09:18;;;;;;;9.88;1.83;;;;;;;;;;5111956;28;20039;-46
2022/01/05 12:11:47;;;;;;;12.18;2.40;;;;;;;;;;5111671;28;20040;-46
2022/01/05 12:14:22;;;;;;;10.10;2.50;;;;;;;;;;5112018;28;20035;-45
2022/01/05 12:17:09;;;;;;;9.93;2.63;;;;;;;;;;5111746;28;20127;-48
2022/01/05 12:19:55;;;;;;;6.93;1.80;;;;;;;;;;5112409;28;20538;-44
2022/01/05 12:22:29;;;;;;;4.90;1.60;;;;;;;;;;5111812;28;20075;-48
2022/01/05 12:25:07;;;;;;;7.70;1.60;;;;;;;;;;5089460;28;20045;-48
2022/01/05 12:27:37;;;;;;;9.07;2.13;;;;;;;;;;5088085;28;20040;-47
2022/01/05 12:30:21;;;;;;;9.02;2.00;;;;;;;;;;5091664;28;20334;-46
2022/01/05 12:33:10;;;;;;;8.98;1.52;;;;;;;;;;5091002;28;20043;-46
2022/01/05 12:35:44;;;;;;;7.93;1.60;;;;;;;;;;5056508;28;20052;-45
2022/01/05 12:38:30;;;;;;;9.45;1.98;;;;;;;;;;5111129;28;20040;-47
2022/01/05 12:40:56;;;;;;;7.47;2.20;;;;;;;;;;5111833;28;20044;-47
2022/01/05 12:43:22;;;;;;;9.30;2.05;;;;;;;;;;5111655;28;20031;-46
2022/01/05 12:45:50;;;;;;;9.52;2.45;;;;;;;;;;5111899;28;20035;-49
2022/01/05 12:48:36;;;;;;;9.00;2.00;;;;;;;;;;5111337;28;20047;-46
2022/01/05 12:53:56;;;;;;;11.60;1.95;;;;;;;;;;5111724;28;20109;-45
2022/01/05 12:56:32;;;;;;;10.95;2.13;;;;;;;;;;5111513;28;20035;-45
2022/01/05 12:59:13;;;;;;;12.90;2.45;;;;;;;;;;5111734;28;20043;-45
2022/01/05 13:01:41;;;;;;;8.50;2.55;;;;;;;;;;5111232;28;20046;-45
2022/01/05 13:04:14;;;;;;;13.00;2.60;;;;;;;;;;5110903;28;20042;-47
2022/01/05 13:06:46;;;;;;;9.98;2.22;;;;;;;;;;5111486;28;20092;-45
2022/01/05 13:09:13;;;;;;;11.50;2.30;;;;;;;;;;5111262;28;20127;-46
2022/01/05 13:11:49;;;;;;;8.43;2.10;;;;;;;;;;5111065;28;20039;-48
2022/01/05 13:14:20;;;;;;;13.43;2.50;;;;;;;;;;5111318;28;20043;-45
2022/01/05 13:16:47;;;;;;;7.65;1.48;;;;;;;;;;5092781;28;20040;-48
2022/01/05 13:19:28;;;;;;;7.97;1.42;;;;;;;;;;5110842;28;20046;-48
2022/01/05 13:21:54;;;;;;;10.00;1.38;;;;;;;;;;5111109;28;20050;-47
2022/01/05 13:24:40;;;;;;;7.60;1.63;;;;;;;;;;5111076;28;20100;-46
2022/01/05 13:27:07;;;;;;;7.72;1.77;;;;;;;;;;5110990;28;20126;-46
2022/01/05 13:29:34;;;;;;;8.77;1.80;;;;;;;;;;5111109;28;20039;-46
2022/01/05 13:32:04;;;;;;;8.70;1.75;;;;;;;;;;5092599;28;20423;-48
2022/01/05 13:34:36;;;;;;;12.15;2.10;;;;;;;;;;5110223;28;20457;-46
2022/01/05 13:37:03;;;;;;;6.82;1.77;;;;;;;;;;5092836;28;20051;-46
2022/01/05 13:39:40;;;;;;;9.80;2.42;;;;;;;;;;5110548;28;20047;-46
2022/01/05 13:42:07;;;;;;;4.97;2.05;;;;;;;;;;5110745;28;20046;-47
2022/01/05 13:44:34;;;;;;;9.30;1.90;;;;;;;;;;5092632;28;20480;-46
2022/01/05 13:47:03;;;;;;;8.73;1.70;;;;;;;;;;5110919;28;20089;-50
2022/01/05 13:49:29;;;;;;;14.13;2.85;;;;;;;;;;5110366;28;20039;-46
2022/01/05 13:52:04;;;;;;;11.75;2.70;;;;;;;;;;5113195;28;20118;-47
2022/01/05 13:54:35;;;;;;;11.00;2.25;;;;;;;;;;5114939;28;20508;-47
2022/01/05 13:57:01;;;;;;;9.43;2.10;;;;;;;;;;5096109;28;20047;-46
2022/01/05 13:59:46;;;;;;;9.82;2.63;;;;;;;;;;5114527;28;20043;-47
2022/01/05 14:02:12;;;;;;;10.70;2.25;;;;;;;;;;5114969;28;20531;-46
2022/01/05 14:04:52;;;;;;;18.17;2.80;;;;;;;;;;5115347;28;20040;-49
2022/01/05 14:07:19;;;;;;;13.20;2.92;;;;;;;;;;5115039;28;20127;-46
2022/01/05 14:09:46;;;;;;;12.35;3.05;;;;;;;;;;5114577;28;20094;-46
2022/01/05 14:12:31;;;;;;;12.00;2.75;;;;;;;;;;5114809;28;20365;-47
2022/01/05 14:15:04;;;;;;;12.25;2.97;;;;;;;;;;5114578;28;20039;-49
2022/01/05 14:17:31;;;;;;;13.63;2.95;;;;;;;;;;5115092;28;20055;-49
2022/01/05 14:20:12;;;;;;;10.18;2.35;;;;;;;;;;5096339;28;20088;-47
2022/01/05 14:22:40;;;;;;;13.77;3.25;;;;;;;;;;5096508;28;20500;-47
2022/01/05 14:25:06;;;;;;;13.35;2.65;;;;;;;;;;5114546;28;20039;-46
2022/01/05 14:27:36;;;;;;;10.40;2.25;;;;;;;;;;5114649;28;20039;-48
2022/01/05 14:30:07;;;;;;;10.25;2.55;;;;;;;;;;5095890;28;20035;-47
2022/01/05 14:32:34;;;;;;;11.48;2.22;;;;;;;;;;5114052;28;20062;-47
2022/01/05 14:35:01;;;;;;;12.52;2.67;;;;;;;;;;5114462;28;20413;-47
2022/01/05 14:37:27;;;;;;;15.27;3.78;;;;;;;;;;5114138;28;20046;-51
2022/01/05 14:39:57;;;;;;;10.30;2.60;;;;;;;;;;5113816;28;20047;-47
2022/01/05 14:42:23;;;;;;;11.75;2.72;;;;;;;;;;5114174;28;20110;-48
2022/01/05 14:44:53;;;;;;;15.63;2.80;;;;;;;;;;5114272;28;20055;-47
2022/01/05 14:47:24;;;;;;;10.80;2.40;;;;;;;;;;5114258;28;20489;-47
2022/01/05 14:49:55;;;;;;;12.90;2.90;;;;;;;;;;5113889;28;20096;-48
2022/01/05 14:52:22;;;;;;;11.52;3.00;;;;;;;;;;5113656;28;20043;-45
2022/01/05 14:54:52;;;;;;;10.38;2.47;;;;;;;;;;5113953;28;20039;-45